5°C Temp
0°C Dewpoint
70% Humidity
Temperature
3 KM/H
2 MPH
2 KTS
340°
North North
West

Wind Speed
Overcast
Conditions
Pressure 1011.82 (hPa) - 29.88 (in)
Visibility 8.7 (mi) - 14.0 (km)

Current Conditions
CYZE
Location 50(km)
Metar :CYZE 282300Z AUTO 34002KT 9SM OVC031 05/00 A2988 RMK SLP128
Wed 28th October 19:00 pm

Airport
  Metar Aviation API Data Provided by https://www.checkwx.com/ PHP scripts by weather34.com ©2020